createdAt,value
2017-07-16T00:00:26.997Z,1024.22
2017-07-16T00:01:28.886Z,1024.20
2017-07-16T00:02:30.760Z,1024.21
2017-07-16T00:03:32.593Z,1024.16
2017-07-16T00:04:34.421Z,1024.16
2017-07-16T00:05:36.292Z,1024.16
2017-07-16T00:06:38.165Z,1024.15
2017-07-16T00:07:40.034Z,1024.11
2017-07-16T00:08:54.183Z,1024.12
2017-07-16T00:09:56.047Z,1024.09
2017-07-16T00:10:57.914Z,1024.10
2017-07-16T00:11:59.785Z,1024.13
2017-07-16T00:13:01.616Z,1024.09
2017-07-16T00:14:03.417Z,1024.09
2017-07-16T00:15:05.292Z,1024.12
2017-07-16T00:16:07.182Z,1024.12
2017-07-16T00:17:09.055Z,1024.12
2017-07-16T00:18:23.216Z,1024.11
2017-07-16T00:19:25.084Z,1024.15
2017-07-16T00:20:26.952Z,1024.15
2017-07-16T00:21:28.820Z,1024.14
2017-07-16T00:22:30.622Z,1024.16
2017-07-16T00:23:32.429Z,1024.15
2017-07-16T00:24:34.307Z,1024.16
2017-07-16T00:25:36.203Z,1024.14
2017-07-16T00:26:38.091Z,1024.12
2017-07-16T00:27:52.319Z,1024.12
2017-07-16T00:28:54.203Z,1024.12
2017-07-16T00:29:56.075Z,1024.15
2017-07-16T00:30:57.969Z,1024.14
2017-07-16T00:31:59.804Z,1024.14
2017-07-16T00:33:01.628Z,1024.18
2017-07-16T00:34:03.500Z,1024.20
2017-07-16T00:35:05.376Z,1024.17
2017-07-16T00:36:07.259Z,1024.17
2017-07-16T00:37:21.406Z,1024.14
2017-07-16T00:38:23.298Z,1024.12
2017-07-16T00:39:25.182Z,1024.13
2017-07-16T00:40:27.049Z,1024.14
2017-07-16T00:41:28.861Z,1024.13
2017-07-16T00:42:30.668Z,1024.15
2017-07-16T00:43:32.538Z,1024.09
2017-07-16T00:44:34.411Z,1024.11
2017-07-16T00:45:36.306Z,1024.11
2017-07-16T00:46:50.475Z,1024.09
2017-07-16T00:47:52.365Z,1024.14
2017-07-16T00:48:54.256Z,1024.11
2017-07-16T00:49:56.154Z,1024.09
2017-07-16T00:50:57.983Z,1024.08
2017-07-16T00:51:59.791Z,1024.09
2017-07-16T00:53:01.681Z,1024.11
2017-07-16T00:54:03.568Z,1024.09
2017-07-16T00:55:05.439Z,1024.11
2017-07-16T00:56:19.639Z,1024.06
2017-07-16T00:57:21.480Z,1024.05
2017-07-16T00:58:23.339Z,1024.07
2017-07-16T00:59:25.231Z,1024.07
2017-07-16T01:00:27.044Z,1024.06
2017-07-16T01:01:28.848Z,1024.03
2017-07-16T01:02:30.716Z,1024.03
2017-07-16T01:03:32.584Z,1024.02
2017-07-16T01:04:34.456Z,1024.04
2017-07-16T01:05:48.620Z,1024.07
2017-07-16T01:06:50.484Z,1024.03
2017-07-16T01:07:52.350Z,1024.06
2017-07-16T01:08:54.216Z,1024.06
2017-07-16T01:09:56.023Z,1024.07
2017-07-16T01:10:57.848Z,1024.13
2017-07-16T01:11:59.714Z,1024.08
2017-07-16T01:13:01.581Z,1024.07
2017-07-16T01:14:03.447Z,1024.04
2017-07-16T01:15:17.609Z,1024.08
2017-07-16T01:16:19.480Z,1024.04
2017-07-16T01:17:21.366Z,1024.05
2017-07-16T01:18:23.270Z,1024.03
2017-07-16T01:19:25.058Z,1024.04
2017-07-16T01:20:26.885Z,1024.07
2017-07-16T01:21:28.768Z,1024.09
2017-07-16T01:22:30.636Z,1024.10
2017-07-16T01:23:32.526Z,1024.12
2017-07-16T01:24:46.692Z,1024.12
2017-07-16T01:25:48.580Z,1024.10
2017-07-16T01:26:50.490Z,1024.10
2017-07-16T01:27:52.336Z,1024.12
2017-07-16T01:28:54.168Z,1024.09
2017-07-16T01:29:55.991Z,1024.06
2017-07-16T01:30:57.857Z,1024.10
2017-07-16T01:31:59.716Z,1024.11
2017-07-16T01:33:01.582Z,1024.11
2017-07-16T01:34:15.743Z,1024.10
2017-07-16T01:35:17.615Z,1024.06
2017-07-16T01:36:19.510Z,1024.09
2017-07-16T01:37:21.372Z,1024.10
2017-07-16T01:38:23.185Z,1024.09
2017-07-16T01:39:24.984Z,1024.09
2017-07-16T01:40:26.854Z,1024.05
2017-07-16T01:41:28.738Z,1024.09
2017-07-16T01:42:30.607Z,1024.10
2017-07-16T01:43:44.773Z,1024.08
2017-07-16T01:44:46.660Z,1024.09
2017-07-16T01:45:48.524Z,1024.09
2017-07-16T01:46:50.414Z,1024.08
2017-07-16T01:47:52.242Z,1024.09
2017-07-16T01:48:54.048Z,1024.11
2017-07-16T01:49:55.936Z,1024.11
2017-07-16T01:50:57.824Z,1024.12
2017-07-16T01:51:59.693Z,1024.11
2017-07-16T01:53:13.850Z,1024.14
2017-07-16T01:54:15.718Z,1024.16
2017-07-16T01:55:17.607Z,1024.16
2017-07-16T01:56:19.466Z,1024.14
2017-07-16T01:57:21.285Z,1024.14
2017-07-16T01:58:23.107Z,1024.12
2017-07-16T01:59:24.994Z,1024.08
2017-07-16T02:00:26.861Z,1024.10
2017-07-16T02:01:28.724Z,1024.16
2017-07-16T02:02:42.858Z,1024.15
2017-07-16T02:03:44.726Z,1024.17
2017-07-16T02:04:46.594Z,1024.17
2017-07-16T02:05:48.483Z,1024.16
2017-07-16T02:06:50.316Z,1024.20
2017-07-16T02:07:52.146Z,1024.21
2017-07-16T02:08:54.036Z,1024.19
2017-07-16T02:09:55.928Z,1024.18
2017-07-16T02:10:57.792Z,1024.17
2017-07-16T02:12:11.954Z,1024.18
2017-07-16T02:13:13.824Z,1024.17
2017-07-16T02:14:15.693Z,1024.20
2017-07-16T02:15:17.584Z,1024.19
2017-07-16T02:16:19.413Z,1024.19
2017-07-16T02:17:21.214Z,1024.18
2017-07-16T02:18:23.082Z,1024.20
2017-07-16T02:19:24.947Z,1024.20
2017-07-16T02:20:26.812Z,1024.18
2017-07-16T02:21:40.953Z,1024.21
2017-07-16T02:22:42.824Z,1024.15
2017-07-16T02:23:44.709Z,1024.19
2017-07-16T02:24:46.585Z,1024.18
2017-07-16T02:25:48.413Z,1024.18
2017-07-16T02:26:50.241Z,1024.20
2017-07-16T02:27:52.130Z,1024.21
2017-07-16T02:28:53.997Z,1024.21
2017-07-16T02:29:55.861Z,1024.22
2017-07-16T02:31:10.000Z,1024.19
2017-07-16T02:32:11.872Z,1024.21
2017-07-16T02:33:13.789Z,1024.21
2017-07-16T02:34:15.629Z,1024.20
2017-07-16T02:35:17.442Z,1024.19
2017-07-16T02:36:19.239Z,1024.16
2017-07-16T02:37:21.108Z,1024.16
2017-07-16T02:38:22.994Z,1024.18
2017-07-16T02:39:24.865Z,1024.14
2017-07-16T02:40:39.028Z,1024.15
2017-07-16T02:41:40.896Z,1024.19
2017-07-16T02:42:42.783Z,1024.19
2017-07-16T02:43:44.652Z,1024.24
2017-07-16T02:44:46.460Z,1024.27
2017-07-16T02:45:48.277Z,1024.21
2017-07-16T02:46:50.146Z,1024.25
2017-07-16T02:47:52.032Z,1024.27
2017-07-16T02:48:53.904Z,1024.28
2017-07-16T02:50:08.059Z,1024.26
2017-07-16T02:51:09.930Z,1024.28
2017-07-16T02:52:11.823Z,1024.29
2017-07-16T02:53:13.716Z,1024.32
2017-07-16T02:54:15.547Z,1024.30
2017-07-16T02:55:17.348Z,1024.29
2017-07-16T02:56:19.221Z,1024.33
2017-07-16T02:57:21.110Z,1024.34
2017-07-16T02:58:22.981Z,1024.34
2017-07-16T02:59:37.118Z,1024.33
2017-07-16T03:00:38.985Z,1024.35
2017-07-16T03:01:40.855Z,1024.34
2017-07-16T03:02:42.754Z,1024.37
2017-07-16T03:03:44.586Z,1024.36
2017-07-16T03:04:46.422Z,1024.35
2017-07-16T03:05:48.313Z,1024.38
2017-07-16T03:06:50.181Z,1024.35
2017-07-16T03:07:52.048Z,1024.36
2017-07-16T03:09:06.188Z,1024.40
2017-07-16T03:10:08.056Z,1024.40
2017-07-16T03:11:09.928Z,1024.44
2017-07-16T03:12:11.831Z,1024.42
2017-07-16T03:13:13.657Z,1024.35
2017-07-16T03:14:15.467Z,1024.39
2017-07-16T03:15:17.330Z,1024.42
2017-07-16T03:16:19.205Z,1024.41
2017-07-16T03:17:21.070Z,1024.42
2017-07-16T03:18:35.211Z,1024.42
2017-07-16T03:19:37.103Z,1024.46
2017-07-16T03:20:38.983Z,1024.43
2017-07-16T03:21:40.873Z,1024.45
2017-07-16T03:22:42.705Z,1024.52
2017-07-16T03:23:44.515Z,1024.56
2017-07-16T03:24:46.416Z,1024.54
2017-07-16T03:25:48.276Z,1024.54
2017-07-16T03:26:50.172Z,1024.61
2017-07-16T03:28:04.337Z,1024.58
2017-07-16T03:29:06.231Z,1024.58
2017-07-16T03:30:08.099Z,1024.57
2017-07-16T03:31:09.973Z,1024.57
2017-07-16T03:32:11.783Z,1024.57
2017-07-16T03:33:13.590Z,1024.58
2017-07-16T03:34:15.470Z,1024.62
2017-07-16T03:35:17.357Z,1024.63
2017-07-16T03:36:19.228Z,1024.65
2017-07-16T03:37:33.422Z,1024.66
2017-07-16T03:38:35.293Z,1024.70
2017-07-16T03:39:37.167Z,1024.71
2017-07-16T03:40:39.061Z,1024.73
2017-07-16T03:41:40.871Z,1024.74
2017-07-16T03:42:42.684Z,1024.69
2017-07-16T03:43:44.553Z,1024.75
2017-07-16T03:44:46.424Z,1024.77
2017-07-16T03:45:48.302Z,1024.74
2017-07-16T03:47:02.439Z,1024.75
2017-07-16T03:48:04.316Z,1024.73
2017-07-16T03:49:06.208Z,1024.74
2017-07-16T03:50:08.080Z,1024.75
2017-07-16T03:51:09.891Z,1024.74
2017-07-16T03:52:11.705Z,1024.78
2017-07-16T03:53:13.580Z,1024.77
2017-07-16T03:54:15.469Z,1024.80
2017-07-16T03:55:17.346Z,1024.81
2017-07-16T03:56:31.514Z,1024.86
2017-07-16T03:57:33.387Z,1024.86
2017-07-16T03:58:35.260Z,1024.85
2017-07-16T03:59:37.162Z,1024.85
2017-07-16T04:00:38.971Z,1024.81
2017-07-16T04:01:40.810Z,1024.79
2017-07-16T04:02:42.705Z,1024.84
2017-07-16T04:03:44.580Z,1024.83
2017-07-16T04:04:46.452Z,1024.85
2017-07-16T04:06:00.622Z,1024.83
2017-07-16T04:07:02.491Z,1024.85
2017-07-16T04:08:04.364Z,1024.84
2017-07-16T04:09:06.263Z,1024.87
2017-07-16T04:10:08.075Z,1024.89
2017-07-16T04:11:09.913Z,1024.89
2017-07-16T04:12:11.784Z,1024.88
2017-07-16T04:13:13.677Z,1024.93
2017-07-16T04:14:15.557Z,1024.91
2017-07-16T04:15:29.730Z,1024.94
2017-07-16T04:16:31.626Z,1024.92
2017-07-16T04:17:33.502Z,1024.97
2017-07-16T04:18:35.400Z,1024.93
2017-07-16T04:19:37.238Z,1024.94
2017-07-16T04:20:39.049Z,1024.97
2017-07-16T04:21:40.942Z,1024.95
2017-07-16T04:22:42.817Z,1024.98
2017-07-16T04:23:44.714Z,1024.99
2017-07-16T04:24:58.888Z,1024.97
2017-07-16T04:26:00.784Z,1024.95
2017-07-16T04:27:02.660Z,1024.96
2017-07-16T04:28:04.534Z,1024.99
2017-07-16T04:29:06.345Z,1024.98
2017-07-16T04:30:08.160Z,1025.02
2017-07-16T04:31:10.038Z,1024.98
2017-07-16T04:32:11.934Z,1025.00
2017-07-16T04:33:13.815Z,1024.99
2017-07-16T04:34:27.961Z,1024.99
2017-07-16T04:35:29.834Z,1025.00
2017-07-16T04:36:31.712Z,1025.02
2017-07-16T04:37:33.613Z,1024.98
2017-07-16T04:38:35.431Z,1025.02
2017-07-16T04:39:37.270Z,1025.04
2017-07-16T04:40:39.172Z,1025.03
2017-07-16T04:41:41.072Z,1025.08
2017-07-16T04:42:42.944Z,1025.08
2017-07-16T04:43:57.117Z,1025.13
2017-07-16T04:44:58.991Z,1025.11
2017-07-16T04:46:00.867Z,1025.12
2017-07-16T04:47:02.763Z,1025.16
2017-07-16T04:48:04.582Z,1025.14
2017-07-16T04:49:06.396Z,1025.18
2017-07-16T04:50:08.272Z,1025.16
2017-07-16T04:51:10.151Z,1025.16
2017-07-16T04:52:12.022Z,1025.17
2017-07-16T04:53:26.181Z,1025.15
2017-07-16T04:54:28.076Z,1025.23
2017-07-16T04:55:29.974Z,1025.19
2017-07-16T04:56:31.876Z,1025.21
2017-07-16T04:57:33.720Z,1025.23
2017-07-16T04:58:35.527Z,1025.20
2017-07-16T04:59:37.399Z,1025.18
2017-07-16T05:00:39.276Z,1025.21
2017-07-16T05:01:41.154Z,1025.24
2017-07-16T05:02:55.325Z,1025.26
2017-07-16T05:03:57.199Z,1025.33
2017-07-16T05:04:59.075Z,1025.34
2017-07-16T05:06:00.949Z,1025.39
2017-07-16T05:07:02.769Z,1025.40
2017-07-16T05:08:04.640Z,1025.48
2017-07-16T05:09:06.480Z,1025.51
2017-07-16T05:10:08.355Z,1025.54
2017-07-16T05:11:10.231Z,1025.54
2017-07-16T05:12:24.379Z,1025.63
2017-07-16T05:13:26.248Z,1025.66
2017-07-16T05:14:28.125Z,1025.75
2017-07-16T05:15:29.997Z,1025.83
2017-07-16T05:16:31.818Z,1025.86
2017-07-16T05:17:33.630Z,1025.92
2017-07-16T05:18:35.508Z,1025.97
2017-07-16T05:19:37.405Z,1026.01
2017-07-16T05:20:39.277Z,1026.00
2017-07-16T05:21:53.476Z,1025.92
2017-07-16T05:22:55.353Z,1025.64
2017-07-16T05:23:57.229Z,1025.44
2017-07-16T05:24:59.129Z,1025.44
2017-07-16T05:26:00.968Z,1025.39
2017-07-16T05:27:02.785Z,1025.37
2017-07-16T05:28:04.662Z,1025.40
2017-07-16T05:29:06.536Z,1025.43
2017-07-16T05:30:08.430Z,1025.44
2017-07-16T05:31:22.582Z,1025.47
2017-07-16T05:32:24.456Z,1025.43
2017-07-16T05:33:26.332Z,1025.46
2017-07-16T05:34:28.233Z,1025.41
2017-07-16T05:35:30.073Z,1025.40
2017-07-16T05:36:31.884Z,1025.39
2017-07-16T05:37:33.757Z,1025.38
2017-07-16T05:38:35.634Z,1025.34
2017-07-16T05:39:37.509Z,1025.33
2017-07-16T05:40:51.679Z,1025.31
2017-07-16T05:41:53.551Z,1025.35
2017-07-16T05:42:55.425Z,1025.29
2017-07-16T05:43:57.327Z,1025.30
2017-07-16T05:44:59.164Z,1025.30
2017-07-16T05:46:00.980Z,1025.29
2017-07-16T05:47:02.877Z,1025.29
2017-07-16T05:48:04.748Z,1025.29
2017-07-16T05:49:06.628Z,1025.23
2017-07-16T05:50:20.810Z,1025.27
2017-07-16T05:51:22.710Z,1025.27
2017-07-16T05:52:24.609Z,1025.23
2017-07-16T05:53:26.482Z,1025.27
2017-07-16T05:54:28.319Z,1025.26
2017-07-16T05:55:30.130Z,1025.29
2017-07-16T05:56:32.025Z,1025.29
2017-07-16T05:57:33.897Z,1025.30
2017-07-16T05:58:35.776Z,1025.28
2017-07-16T05:59:49.943Z,1025.30
2017-07-16T06:00:51.814Z,1025.30
2017-07-16T06:01:53.688Z,1025.27
2017-07-16T06:02:55.561Z,1025.28
2017-07-16T06:03:57.386Z,1025.27
2017-07-16T06:04:59.213Z,1025.27
2017-07-16T06:06:01.107Z,1025.28
2017-07-16T06:07:02.980Z,1025.30
2017-07-16T06:08:04.879Z,1025.27
2017-07-16T06:09:19.046Z,1025.26
2017-07-16T06:10:20.916Z,1025.27
2017-07-16T06:11:22.789Z,1025.29
2017-07-16T06:12:24.661Z,1025.30
2017-07-16T06:13:26.473Z,1025.30
2017-07-16T06:14:28.287Z,1025.30
2017-07-16T06:15:30.155Z,1025.29
2017-07-16T06:16:32.030Z,1025.26
2017-07-16T06:17:33.925Z,1025.30
2017-07-16T06:18:48.092Z,1025.27
2017-07-16T06:19:49.968Z,1025.30
2017-07-16T06:20:51.850Z,1025.32
2017-07-16T06:21:53.742Z,1025.35
2017-07-16T06:22:55.561Z,1025.33
2017-07-16T06:23:57.394Z,1025.34
2017-07-16T06:24:59.295Z,1025.35
2017-07-16T06:26:01.167Z,1025.36
2017-07-16T06:27:03.040Z,1025.40
2017-07-16T06:28:17.216Z,1025.38
2017-07-16T06:29:19.112Z,1025.39
2017-07-16T06:30:21.014Z,1025.45
2017-07-16T06:31:22.909Z,1025.44
2017-07-16T06:32:24.736Z,1025.42
2017-07-16T06:33:26.543Z,1025.44
2017-07-16T06:34:28.415Z,1025.43
2017-07-16T06:35:30.286Z,1025.42
2017-07-16T06:36:32.157Z,1025.43
2017-07-16T06:37:46.313Z,1025.42
2017-07-16T06:38:48.206Z,1025.46
2017-07-16T06:39:50.076Z,1025.44
2017-07-16T06:40:51.955Z,1025.46
2017-07-16T06:41:53.790Z,1025.49
2017-07-16T06:42:55.622Z,1025.46
2017-07-16T06:43:57.497Z,1025.49
2017-07-16T06:44:59.371Z,1025.40
2017-07-16T06:46:01.242Z,1025.38
2017-07-16T06:47:15.462Z,1025.42
2017-07-16T06:48:17.360Z,1025.43
2017-07-16T06:49:19.232Z,1025.40
2017-07-16T06:50:21.312Z,1025.43
2017-07-16T06:51:23.740Z,1025.39
2017-07-16T06:52:25.573Z,1025.43
2017-07-16T06:53:27.466Z,1025.45
2017-07-16T06:54:29.340Z,1025.45
2017-07-16T06:55:31.208Z,1025.45
2017-07-16T06:56:45.360Z,1025.47
2017-07-16T06:57:47.260Z,1025.48
2017-07-16T06:58:49.159Z,1025.50
2017-07-16T06:59:51.041Z,1025.48
2017-07-16T07:00:52.881Z,1025.52
2017-07-16T07:01:54.714Z,1025.50
2017-07-16T07:02:56.609Z,1025.53
2017-07-16T07:03:58.481Z,1025.53
2017-07-16T07:05:00.355Z,1025.60
2017-07-16T07:06:14.499Z,1025.60
2017-07-16T07:07:16.374Z,1025.64
2017-07-16T07:08:18.243Z,1025.59
2017-07-16T07:09:20.118Z,1025.65
2017-07-16T07:10:21.932Z,1025.65
2017-07-16T07:11:23.764Z,1025.62
2017-07-16T07:12:25.643Z,1025.66
2017-07-16T07:13:27.537Z,1025.63
2017-07-16T07:14:29.411Z,1025.65
2017-07-16T07:15:43.583Z,1025.65
2017-07-16T07:16:45.480Z,1025.65
2017-07-16T07:17:47.354Z,1025.70
2017-07-16T07:18:49.249Z,1025.72
2017-07-16T07:19:51.065Z,1025.74
2017-07-16T07:20:52.896Z,1025.76
2017-07-16T07:21:54.774Z,1025.77
2017-07-16T07:22:56.670Z,1025.76
2017-07-16T07:23:58.561Z,1025.72
2017-07-16T07:25:12.710Z,1025.74
2017-07-16T07:26:14.590Z,1025.77
2017-07-16T07:27:16.484Z,1025.76
2017-07-16T07:28:18.363Z,1025.77
2017-07-16T07:29:20.195Z,1025.80
2017-07-16T07:30:22.011Z,1025.80
2017-07-16T07:31:23.903Z,1025.76
2017-07-16T07:32:25.774Z,1025.77
2017-07-16T07:33:27.647Z,1025.78
2017-07-16T07:34:41.822Z,1025.76
2017-07-16T07:35:43.731Z,1025.76
2017-07-16T07:36:45.592Z,1025.76
2017-07-16T07:37:47.481Z,1025.76
2017-07-16T07:38:49.301Z,1025.76
2017-07-16T07:39:51.133Z,1025.73
2017-07-16T07:40:53.003Z,1025.73
2017-07-16T07:41:54.877Z,1025.69
2017-07-16T07:42:56.757Z,1025.78
2017-07-16T07:44:10.899Z,1025.73
2017-07-16T07:45:12.791Z,1025.75
2017-07-16T07:46:14.669Z,1025.75
2017-07-16T07:47:16.568Z,1025.84
2017-07-16T07:48:18.412Z,1025.90
2017-07-16T07:49:20.247Z,1025.97
2017-07-16T07:50:22.145Z,1026.02
2017-07-16T07:51:24.036Z,1026.05
2017-07-16T07:52:25.914Z,1026.09
2017-07-16T07:53:40.087Z,1026.19
2017-07-16T07:54:41.959Z,1026.17
2017-07-16T07:55:43.831Z,1026.19
2017-07-16T07:56:45.733Z,1026.23
2017-07-16T07:57:47.569Z,1026.19
2017-07-16T07:58:49.390Z,1026.21
2017-07-16T07:59:51.291Z,1026.15
2017-07-16T08:00:53.186Z,1026.15
2017-07-16T08:01:55.062Z,1026.15
2017-07-16T08:03:09.207Z,1026.14
2017-07-16T08:04:11.082Z,1026.21
2017-07-16T08:05:12.956Z,1026.24
2017-07-16T08:06:14.832Z,1026.23
2017-07-16T08:07:16.672Z,1026.23
2017-07-16T08:08:18.487Z,1026.23
2017-07-16T08:09:20.361Z,1026.28
2017-07-16T08:10:22.237Z,1026.29
2017-07-16T08:11:24.116Z,1026.28
2017-07-16T08:12:38.263Z,1026.27
2017-07-16T08:13:40.140Z,1026.29
2017-07-16T08:14:42.039Z,1026.27
2017-07-16T08:15:43.933Z,1026.32
2017-07-16T08:16:45.754Z,1026.31
2017-07-16T08:17:47.601Z,1026.33
2017-07-16T08:18:49.476Z,1026.35
2017-07-16T08:19:51.352Z,1026.33
2017-07-16T08:20:53.230Z,1026.32
2017-07-16T08:22:07.400Z,1026.36
2017-07-16T08:23:09.278Z,1026.39
2017-07-16T08:24:11.155Z,1026.36
2017-07-16T08:25:13.054Z,1026.37
2017-07-16T08:26:14.876Z,1026.31
2017-07-16T08:27:16.713Z,1026.36
2017-07-16T08:28:18.590Z,1026.30
2017-07-16T08:29:20.489Z,1026.33
2017-07-16T08:30:22.384Z,1026.30
2017-07-16T08:31:36.541Z,1026.25
2017-07-16T08:32:38.436Z,1026.26
2017-07-16T08:33:40.319Z,1026.22
2017-07-16T08:34:42.223Z,1026.18
2017-07-16T08:35:44.070Z,1026.21
2017-07-16T08:36:45.886Z,1026.18
2017-07-16T08:37:47.756Z,1026.16
2017-07-16T08:38:49.633Z,1026.11
2017-07-16T08:39:51.515Z,1026.09
2017-07-16T08:41:05.689Z,1026.08
2017-07-16T08:42:07.564Z,1026.08
2017-07-16T08:43:09.441Z,1026.04
2017-07-16T08:44:11.316Z,1026.09
2017-07-16T08:45:13.138Z,1026.03
2017-07-16T08:46:14.948Z,1026.11
2017-07-16T08:47:16.768Z,1026.24
2017-07-16T08:48:18.585Z,1026.27
2017-07-16T08:49:20.424Z,1026.23
2017-07-16T08:50:34.596Z,1026.20
2017-07-16T08:51:36.475Z,1026.22
2017-07-16T08:52:38.375Z,1026.19
2017-07-16T08:53:40.253Z,1026.18
2017-07-16T08:54:42.072Z,1026.18
2017-07-16T08:55:43.888Z,1026.21
2017-07-16T08:56:45.787Z,1026.22
2017-07-16T08:57:47.658Z,1026.23
2017-07-16T08:58:49.538Z,1026.18
2017-07-16T09:00:03.691Z,1026.16
2017-07-16T09:01:05.566Z,1026.17
2017-07-16T09:02:07.448Z,1026.19
2017-07-16T09:03:09.350Z,1026.22
2017-07-16T09:04:11.192Z,1026.24
2017-07-16T09:05:13.033Z,1026.25
2017-07-16T09:06:14.934Z,1026.23
2017-07-16T09:07:16.836Z,1026.22
2017-07-16T09:08:18.710Z,1026.20
2017-07-16T09:09:32.863Z,1026.24
2017-07-16T09:10:34.748Z,1026.24
2017-07-16T09:11:36.650Z,1026.25
2017-07-16T09:12:38.529Z,1026.28
2017-07-16T09:13:40.351Z,1026.30
2017-07-16T09:14:42.169Z,1026.29
2017-07-16T09:15:44.045Z,1026.27
2017-07-16T09:16:45.942Z,1026.27
2017-07-16T09:17:47.825Z,1026.28
2017-07-16T09:19:01.999Z,1026.29
2017-07-16T09:20:03.879Z,1026.24
2017-07-16T09:21:05.752Z,1026.22
2017-07-16T09:22:07.638Z,1026.25
2017-07-16T09:23:09.484Z,1026.29
2017-07-16T09:24:11.299Z,1026.25
2017-07-16T09:25:13.197Z,1026.31
2017-07-16T09:26:15.079Z,1026.30
2017-07-16T09:27:16.955Z,1026.29
2017-07-16T09:28:31.107Z,1026.32
2017-07-16T09:29:32.989Z,1026.31
2017-07-16T09:30:34.869Z,1026.28
2017-07-16T09:31:36.767Z,1026.28
2017-07-16T09:32:38.589Z,1026.24
2017-07-16T09:33:40.402Z,1026.27
2017-07-16T09:34:42.287Z,1026.29
2017-07-16T09:35:44.187Z,1026.26
2017-07-16T09:36:46.086Z,1026.28
2017-07-16T09:38:00.239Z,1026.23
2017-07-16T09:39:02.117Z,1026.21
2017-07-16T09:40:03.993Z,1026.21
2017-07-16T09:41:05.874Z,1026.24
2017-07-16T09:42:07.694Z,1026.21
2017-07-16T09:43:09.539Z,1026.14
2017-07-16T09:44:11.442Z,1026.17
2017-07-16T09:45:13.347Z,1026.13
2017-07-16T09:46:15.248Z,1026.16
2017-07-16T09:47:29.498Z,1026.14
2017-07-16T09:48:31.380Z,1026.14
2017-07-16T09:49:33.283Z,1026.14
2017-07-16T09:50:35.187Z,1026.11
2017-07-16T09:51:37.008Z,1026.15
2017-07-16T09:52:38.828Z,1026.13
2017-07-16T09:53:40.722Z,1026.19
2017-07-16T09:54:42.601Z,1026.19
2017-07-16T09:55:44.486Z,1026.20
2017-07-16T09:56:58.661Z,1026.21
2017-07-16T09:58:00.564Z,1026.18
2017-07-16T09:59:02.446Z,1026.20
2017-07-16T10:00:04.348Z,1026.18
2017-07-16T10:01:06.166Z,1026.19
2017-07-16T10:02:08.012Z,1026.15
2017-07-16T10:03:09.913Z,1026.09
2017-07-16T10:04:11.791Z,1026.06
2017-07-16T10:05:13.685Z,1026.04
2017-07-16T10:06:27.846Z,1026.01
2017-07-16T10:07:29.747Z,1025.99
2017-07-16T10:08:31.631Z,1025.93
2017-07-16T10:09:33.531Z,1025.96
2017-07-16T10:10:35.373Z,1025.93
2017-07-16T10:11:37.195Z,1025.96
2017-07-16T10:12:39.100Z,1026.01
2017-07-16T10:13:40.994Z,1026.04
2017-07-16T10:14:42.873Z,1026.07
2017-07-16T10:15:57.024Z,1026.15
2017-07-16T10:16:58.905Z,1026.06
2017-07-16T10:18:00.781Z,1026.02
2017-07-16T10:19:02.664Z,1025.98
2017-07-16T10:20:04.506Z,1025.98
2017-07-16T10:21:06.325Z,1025.89
2017-07-16T10:22:08.204Z,1025.94
2017-07-16T10:23:10.106Z,1025.91
2017-07-16T10:24:12.006Z,1025.89
2017-07-16T10:25:26.158Z,1025.89
2017-07-16T10:26:28.039Z,1025.88
2017-07-16T10:27:29.937Z,1025.92
2017-07-16T10:28:31.843Z,1025.86
2017-07-16T10:29:33.682Z,1025.77
2017-07-16T10:30:35.499Z,1025.79
2017-07-16T10:31:37.400Z,1025.74
2017-07-16T10:32:39.305Z,1025.71
2017-07-16T10:33:41.204Z,1025.72
2017-07-16T10:34:55.406Z,1025.75
2017-07-16T10:35:57.311Z,1025.71
2017-07-16T10:36:59.186Z,1025.76
2017-07-16T10:38:01.066Z,1025.77
2017-07-16T10:39:02.906Z,1025.75
2017-07-16T10:40:04.727Z,1025.79
2017-07-16T10:41:06.633Z,1025.82
2017-07-16T10:42:08.505Z,1025.84
2017-07-16T10:43:10.381Z,1025.86
2017-07-16T10:44:24.537Z,1025.94
2017-07-16T10:45:26.442Z,1025.89
2017-07-16T10:46:28.345Z,1025.89
2017-07-16T10:47:30.244Z,1025.92
2017-07-16T10:48:32.064Z,1025.84
2017-07-16T10:49:33.880Z,1025.83
2017-07-16T10:50:35.780Z,1025.80
2017-07-16T10:51:37.661Z,1025.84
2017-07-16T10:52:39.558Z,1025.84
2017-07-16T10:53:53.711Z,1025.83
2017-07-16T10:54:55.587Z,1025.86
2017-07-16T10:55:57.467Z,1025.83
2017-07-16T10:56:59.371Z,1025.86
2017-07-16T10:58:01.207Z,1025.82
2017-07-16T10:59:03.026Z,1025.80
2017-07-16T11:00:04.902Z,1025.78
2017-07-16T11:01:06.777Z,1025.75
2017-07-16T11:02:08.656Z,1025.69
2017-07-16T11:03:22.834Z,1025.71
2017-07-16T11:04:24.714Z,1025.66
2017-07-16T11:05:26.616Z,1025.71
2017-07-16T11:06:28.520Z,1025.66
2017-07-16T11:07:30.365Z,1025.62
2017-07-16T11:08:32.201Z,1025.61
2017-07-16T11:09:34.083Z,1025.59
2017-07-16T11:10:35.961Z,1025.60
2017-07-16T11:11:37.861Z,1025.60
2017-07-16T11:12:52.015Z,1025.60
2017-07-16T11:13:53.893Z,1025.50
2017-07-16T11:14:55.793Z,1025.52
2017-07-16T11:15:57.674Z,1025.61
2017-07-16T11:16:59.517Z,1025.60
2017-07-16T11:18:01.368Z,1025.58
2017-07-16T11:19:03.257Z,1025.51
2017-07-16T11:20:05.146Z,1025.44
2017-07-16T11:21:07.046Z,1025.41
2017-07-16T11:22:21.221Z,1025.33
2017-07-16T11:23:23.102Z,1025.34
2017-07-16T11:24:25.003Z,1025.38
2017-07-16T11:25:26.883Z,1025.38
2017-07-16T11:26:28.705Z,1025.35
2017-07-16T11:27:30.548Z,1025.31
2017-07-16T11:28:32.446Z,1025.32
2017-07-16T11:29:34.326Z,1025.30
2017-07-16T11:30:36.228Z,1025.27
2017-07-16T11:31:50.384Z,1025.29
2017-07-16T11:32:52.280Z,1025.28
2017-07-16T11:33:54.163Z,1025.30
2017-07-16T11:34:56.064Z,1025.32
2017-07-16T11:35:57.885Z,1025.31
2017-07-16T11:36:59.706Z,1025.32
2017-07-16T11:38:01.606Z,1025.30
2017-07-16T11:39:03.483Z,1025.32
2017-07-16T11:40:05.384Z,1025.34
2017-07-16T11:41:19.565Z,1025.28
2017-07-16T11:42:21.466Z,1025.22
2017-07-16T11:43:23.347Z,1025.26
2017-07-16T11:44:25.243Z,1025.23
2017-07-16T11:45:27.063Z,1025.21
2017-07-16T11:46:28.884Z,1025.14
2017-07-16T11:47:30.758Z,1025.17
2017-07-16T11:48:32.638Z,1025.17
2017-07-16T11:49:34.518Z,1025.13
2017-07-16T11:50:48.675Z,1025.06
2017-07-16T11:51:50.580Z,1025.06
2017-07-16T11:52:52.458Z,1025.09
2017-07-16T11:53:54.357Z,1025.11
2017-07-16T11:54:56.177Z,1025.09
2017-07-16T11:55:57.999Z,1025.06
2017-07-16T11:56:59.899Z,1025.05
2017-07-16T11:58:01.772Z,1025.02
2017-07-16T11:59:03.653Z,1025.02
2017-07-16T12:00:17.829Z,1025.05
2017-07-16T12:01:19.702Z,1025.03
2017-07-16T12:02:21.578Z,1025.06
2017-07-16T12:03:23.459Z,1025.11
2017-07-16T12:04:25.288Z,1025.07
2017-07-16T12:05:27.123Z,1025.10
2017-07-16T12:06:29.002Z,1025.14
2017-07-16T12:07:30.879Z,1025.13
2017-07-16T12:08:32.758Z,1025.17
2017-07-16T12:09:46.933Z,1025.19
2017-07-16T12:10:48.809Z,1025.21
2017-07-16T12:11:50.692Z,1025.24
2017-07-16T12:12:52.597Z,1025.29
2017-07-16T12:13:54.439Z,1025.31
2017-07-16T12:14:56.279Z,1025.28
2017-07-16T12:15:58.181Z,1025.27
2017-07-16T12:17:00.063Z,1025.25
2017-07-16T12:18:01.965Z,1025.23
2017-07-16T12:19:16.144Z,1025.22
2017-07-16T12:20:18.050Z,1025.16
2017-07-16T12:21:19.950Z,1025.18
2017-07-16T12:22:21.853Z,1025.12
2017-07-16T12:23:23.700Z,1025.10
2017-07-16T12:24:25.540Z,1025.15
2017-07-16T12:25:27.422Z,1025.09
2017-07-16T12:26:29.303Z,1025.17
2017-07-16T12:27:31.198Z,1025.22
2017-07-16T12:28:45.350Z,1025.20
2017-07-16T12:29:47.236Z,1025.22
2017-07-16T12:30:49.144Z,1025.24
2017-07-16T12:31:51.043Z,1025.16
2017-07-16T12:32:52.867Z,1025.19
2017-07-16T12:33:54.711Z,1025.15
2017-07-16T12:34:56.611Z,1025.10
2017-07-16T12:35:58.493Z,1025.00
2017-07-16T12:37:00.369Z,1025.01
2017-07-16T12:38:14.522Z,1025.02
2017-07-16T12:39:16.410Z,1025.03
2017-07-16T12:40:18.314Z,1025.07
2017-07-16T12:41:20.199Z,1025.11
2017-07-16T12:42:22.026Z,1025.12
2017-07-16T12:43:23.863Z,1025.07
2017-07-16T12:44:25.744Z,1025.11